sensor_id;sensor_type;location;lat;lon;timestamp;P1;durP1;ratioP1;P2;durP2;ratioP2
14933;SDS011;7560;51.364;12.384;2024-01-16T00:00:45;4.13;;;2.40;;
14933;SDS011;7560;51.364;12.384;2024-01-16T00:05:47;3.92;;;2.40;;
14933;SDS011;7560;51.364;12.384;2024-01-16T00:10:50;6.03;;;2.42;;
14933;SDS011;7560;51.364;12.384;2024-01-16T00:15:52;4.85;;;2.53;;
14933;SDS011;7560;51.364;12.384;2024-01-16T00:20:54;5.68;;;3.30;;
14933;SDS011;7560;51.364;12.384;2024-01-16T00:25:55;4.85;;;2.63;;
14933;SDS011;7560;51.364;12.384;2024-01-16T00:30:57;7.25;;;3.10;;
14933;SDS011;7560;51.364;12.384;2024-01-16T00:35:59;6.30;;;3.00;;
14933;SDS011;7560;51.364;12.384;2024-01-16T00:41:01;6.63;;;3.00;;
14933;SDS011;7560;51.364;12.384;2024-01-16T00:46:03;4.68;;;3.20;;
14933;SDS011;7560;51.364;12.384;2024-01-16T00:51:05;4.55;;;2.50;;
14933;SDS011;7560;51.364;12.384;2024-01-16T00:56:07;6.85;;;2.65;;
14933;SDS011;7560;51.364;12.384;2024-01-16T01:01:09;2.30;;;2.10;;
14933;SDS011;7560;51.364;12.384;2024-01-16T01:06:11;4.13;;;2.30;;
14933;SDS011;7560;51.364;12.384;2024-01-16T01:11:13;5.53;;;2.42;;
14933;SDS011;7560;51.364;12.384;2024-01-16T01:16:15;3.40;;;2.15;;
14933;SDS011;7560;51.364;12.384;2024-01-16T01:21:16;4.05;;;2.10;;
14933;SDS011;7560;51.364;12.384;2024-01-16T01:26:18;2.53;;;2.00;;
14933;SDS011;7560;51.364;12.384;2024-01-16T01:31:20;5.28;;;1.52;;
14933;SDS011;7560;51.364;12.384;2024-01-16T01:36:22;5.28;;;1.95;;
14933;SDS011;7560;51.364;12.384;2024-01-16T01:41:24;3.17;;;1.45;;
14933;SDS011;7560;51.364;12.384;2024-01-16T01:46:25;3.50;;;1.70;;
14933;SDS011;7560;51.364;12.384;2024-01-16T01:51:28;2.40;;;1.45;;
14933;SDS011;7560;51.364;12.384;2024-01-16T01:56:31;2.42;;;1.05;;
14933;SDS011;7560;51.364;12.384;2024-01-16T02:01:33;2.67;;;1.30;;
14933;SDS011;7560;51.364;12.384;2024-01-16T02:06:36;3.60;;;1.30;;
14933;SDS011;7560;51.364;12.384;2024-01-16T02:11:38;3.83;;;1.40;;
14933;SDS011;7560;51.364;12.384;2024-01-16T02:16:43;3.03;;;1.42;;
14933;SDS011;7560;51.364;12.384;2024-01-16T02:21:48;2.25;;;1.48;;
14933;SDS011;7560;51.364;12.384;2024-01-16T02:26:51;4.15;;;1.60;;
14933;SDS011;7560;51.364;12.384;2024-01-16T02:31:54;3.75;;;1.60;;
14933;SDS011;7560;51.364;12.384;2024-01-16T02:36:56;3.35;;;1.52;;
14933;SDS011;7560;51.364;12.384;2024-01-16T02:41:57;2.90;;;1.23;;
14933;SDS011;7560;51.364;12.384;2024-01-16T02:46:59;3.88;;;1.40;;
14933;SDS011;7560;51.364;12.384;2024-01-16T02:52:01;2.20;;;1.30;;
14933;SDS011;7560;51.364;12.384;2024-01-16T02:57:03;3.53;;;1.25;;
14933;SDS011;7560;51.364;12.384;2024-01-16T03:02:05;4.38;;;1.30;;
14933;SDS011;7560;51.364;12.384;2024-01-16T03:07:07;1.80;;;1.00;;
14933;SDS011;7560;51.364;12.384;2024-01-16T03:12:09;2.85;;;1.40;;
14933;SDS011;7560;51.364;12.384;2024-01-16T03:17:10;2.28;;;1.55;;
14933;SDS011;7560;51.364;12.384;2024-01-16T03:22:12;2.75;;;2.20;;
14933;SDS011;7560;51.364;12.384;2024-01-16T03:27:14;2.38;;;1.48;;
14933;SDS011;7560;51.364;12.384;2024-01-16T03:32:16;1.50;;;1.13;;
14933;SDS011;7560;51.364;12.384;2024-01-16T03:37:18;1.40;;;1.20;;
14933;SDS011;7560;51.364;12.384;2024-01-16T03:42:20;3.22;;;1.60;;
14933;SDS011;7560;51.364;12.384;2024-01-16T03:47:22;2.75;;;1.75;;
14933;SDS011;7560;51.364;12.384;2024-01-16T03:52:24;3.65;;;1.70;;
14933;SDS011;7560;51.364;12.384;2024-01-16T03:57:26;2.60;;;1.42;;
14933;SDS011;7560;51.364;12.384;2024-01-16T04:02:28;4.53;;;1.67;;
14933;SDS011;7560;51.364;12.384;2024-01-16T04:07:30;3.08;;;1.48;;
14933;SDS011;7560;51.364;12.384;2024-01-16T04:12:31;3.85;;;1.83;;
14933;SDS011;7560;51.364;12.384;2024-01-16T04:17:33;4.80;;;1.80;;
14933;SDS011;7560;51.364;12.384;2024-01-16T04:22:35;2.97;;;1.50;;
14933;SDS011;7560;51.364;12.384;2024-01-16T04:27:37;3.28;;;2.10;;
14933;SDS011;7560;51.364;12.384;2024-01-16T04:32:39;4.60;;;1.63;;
14933;SDS011;7560;51.364;12.384;2024-01-16T04:37:41;4.10;;;1.98;;
14933;SDS011;7560;51.364;12.384;2024-01-16T04:42:42;2.67;;;1.80;;
14933;SDS011;7560;51.364;12.384;2024-01-16T04:47:44;3.83;;;1.90;;
14933;SDS011;7560;51.364;12.384;2024-01-16T04:52:46;4.15;;;1.80;;
14933;SDS011;7560;51.364;12.384;2024-01-16T04:57:50;2.45;;;1.80;;
14933;SDS011;7560;51.364;12.384;2024-01-16T05:02:52;4.28;;;2.15;;
14933;SDS011;7560;51.364;12.384;2024-01-16T05:07:54;3.70;;;2.35;;
14933;SDS011;7560;51.364;12.384;2024-01-16T05:12:56;4.00;;;2.00;;
14933;SDS011;7560;51.364;12.384;2024-01-16T05:17:58;2.90;;;2.08;;
14933;SDS011;7560;51.364;12.384;2024-01-16T05:23:00;4.65;;;2.40;;
14933;SDS011;7560;51.364;12.384;2024-01-16T05:28:01;3.30;;;2.28;;
14933;SDS011;7560;51.364;12.384;2024-01-16T05:33:03;6.05;;;2.70;;
14933;SDS011;7560;51.364;12.384;2024-01-16T05:38:05;5.68;;;2.40;;
14933;SDS011;7560;51.364;12.384;2024-01-16T05:43:08;6.50;;;2.60;;
14933;SDS011;7560;51.364;12.384;2024-01-16T05:48:09;4.03;;;2.00;;
14933;SDS011;7560;51.364;12.384;2024-01-16T05:53:12;5.22;;;2.70;;
14933;SDS011;7560;51.364;12.384;2024-01-16T05:58:14;6.18;;;2.33;;
14933;SDS011;7560;51.364;12.384;2024-01-16T06:03:15;3.17;;;2.20;;
14933;SDS011;7560;51.364;12.384;2024-01-16T06:08:17;5.82;;;2.45;;
14933;SDS011;7560;51.364;12.384;2024-01-16T06:13:20;4.50;;;2.30;;
14933;SDS011;7560;51.364;12.384;2024-01-16T06:18:23;5.93;;;2.78;;
14933;SDS011;7560;51.364;12.384;2024-01-16T06:23:25;5.88;;;2.90;;
14933;SDS011;7560;51.364;12.384;2024-01-16T06:28:27;4.47;;;2.42;;
14933;SDS011;7560;51.364;12.384;2024-01-16T06:33:29;4.38;;;2.30;;
14933;SDS011;7560;51.364;12.384;2024-01-16T06:38:31;6.18;;;2.72;;
14933;SDS011;7560;51.364;12.384;2024-01-16T06:43:33;4.60;;;2.17;;
14933;SDS011;7560;51.364;12.384;2024-01-16T06:48:35;3.70;;;2.75;;
14933;SDS011;7560;51.364;12.384;2024-01-16T06:53:38;3.58;;;1.92;;
14933;SDS011;7560;51.364;12.384;2024-01-16T06:58:40;4.00;;;2.40;;
14933;SDS011;7560;51.364;12.384;2024-01-16T07:03:42;3.17;;;1.75;;
14933;SDS011;7560;51.364;12.384;2024-01-16T07:08:43;3.65;;;2.08;;
14933;SDS011;7560;51.364;12.384;2024-01-16T07:13:45;6.55;;;2.42;;
14933;SDS011;7560;51.364;12.384;2024-01-16T07:18:47;6.43;;;2.78;;
14933;SDS011;7560;51.364;12.384;2024-01-16T07:23:49;6.05;;;3.50;;
14933;SDS011;7560;51.364;12.384;2024-01-16T07:28:51;5.95;;;3.15;;
14933;SDS011;7560;51.364;12.384;2024-01-16T07:33:53;6.00;;;2.60;;
14933;SDS011;7560;51.364;12.384;2024-01-16T07:38:55;10.82;;;3.30;;
14933;SDS011;7560;51.364;12.384;2024-01-16T07:43:57;6.57;;;2.83;;
14933;SDS011;7560;51.364;12.384;2024-01-16T07:48:59;7.32;;;3.55;;
14933;SDS011;7560;51.364;12.384;2024-01-16T07:54:07;5.60;;;3.92;;
14933;SDS011;7560;51.364;12.384;2024-01-16T07:59:10;7.22;;;3.90;;
14933;SDS011;7560;51.364;12.384;2024-01-16T08:04:12;8.80;;;3.97;;
14933;SDS011;7560;51.364;12.384;2024-01-16T08:09:14;9.07;;;3.85;;
14933;SDS011;7560;51.364;12.384;2024-01-16T08:14:16;10.68;;;4.85;;
14933;SDS011;7560;51.364;12.384;2024-01-16T08:19:18;10.15;;;4.90;;
14933;SDS011;7560;51.364;12.384;2024-01-16T08:24:20;9.40;;;4.85;;
14933;SDS011;7560;51.364;12.384;2024-01-16T08:29:21;8.88;;;5.25;;
14933;SDS011;7560;51.364;12.384;2024-01-16T08:34:23;7.07;;;3.90;;
14933;SDS011;7560;51.364;12.384;2024-01-16T08:39:25;6.38;;;3.92;;
14933;SDS011;7560;51.364;12.384;2024-01-16T08:44:29;7.90;;;3.22;;
14933;SDS011;7560;51.364;12.384;2024-01-16T08:49:30;8.85;;;4.07;;
14933;SDS011;7560;51.364;12.384;2024-01-16T08:54:33;8.23;;;3.47;;
14933;SDS011;7560;51.364;12.384;2024-01-16T08:59:34;8.30;;;3.72;;
14933;SDS011;7560;51.364;12.384;2024-01-16T09:04:36;8.32;;;3.72;;
14933;SDS011;7560;51.364;12.384;2024-01-16T09:09:39;7.63;;;3.50;;
14933;SDS011;7560;51.364;12.384;2024-01-16T09:14:42;6.45;;;3.50;;
14933;SDS011;7560;51.364;12.384;2024-01-16T09:19:44;7.15;;;3.85;;
14933;SDS011;7560;51.364;12.384;2024-01-16T09:24:46;8.13;;;3.47;;
14933;SDS011;7560;51.364;12.384;2024-01-16T09:29:48;5.63;;;2.92;;
14933;SDS011;7560;51.364;12.384;2024-01-16T09:34:50;8.65;;;3.28;;
14933;SDS011;7560;51.364;12.384;2024-01-16T09:39:52;8.93;;;3.40;;
14933;SDS011;7560;51.364;12.384;2024-01-16T09:44:55;5.55;;;3.33;;
14933;SDS011;7560;51.364;12.384;2024-01-16T09:50:01;6.00;;;3.33;;
14933;SDS011;7560;51.364;12.384;2024-01-16T09:55:04;8.68;;;3.47;;
14933;SDS011;7560;51.364;12.384;2024-01-16T10:00:08;6.85;;;3.53;;
14933;SDS011;7560;51.364;12.384;2024-01-16T10:05:13;6.32;;;3.67;;
14933;SDS011;7560;51.364;12.384;2024-01-16T10:10:15;7.55;;;3.53;;
14933;SDS011;7560;51.364;12.384;2024-01-16T10:15:26;6.57;;;3.25;;
14933;SDS011;7560;51.364;12.384;2024-01-16T10:20:32;8.20;;;3.35;;
14933;SDS011;7560;51.364;12.384;2024-01-16T10:25:35;7.18;;;3.22;;
14933;SDS011;7560;51.364;12.384;2024-01-16T10:30:39;6.45;;;2.88;;
14933;SDS011;7560;51.364;12.384;2024-01-16T10:35:40;7.63;;;3.10;;
14933;SDS011;7560;51.364;12.384;2024-01-16T10:40:42;6.43;;;2.85;;
14933;SDS011;7560;51.364;12.384;2024-01-16T10:45:44;4.50;;;2.65;;
14933;SDS011;7560;51.364;12.384;2024-01-16T10:50:46;8.00;;;2.38;;
14933;SDS011;7560;51.364;12.384;2024-01-16T10:55:51;7.50;;;3.38;;
14933;SDS011;7560;51.364;12.384;2024-01-16T11:00:54;4.60;;;2.63;;
14933;SDS011;7560;51.364;12.384;2024-01-16T11:06:07;8.10;;;2.90;;
14933;SDS011;7560;51.364;12.384;2024-01-16T11:11:11;6.40;;;2.55;;
14933;SDS011;7560;51.364;12.384;2024-01-16T11:16:14;4.25;;;2.33;;
14933;SDS011;7560;51.364;12.384;2024-01-16T11:21:17;9.93;;;2.70;;
14933;SDS011;7560;51.364;12.384;2024-01-16T11:26:26;3.17;;;2.22;;
14933;SDS011;7560;51.364;12.384;2024-01-16T11:31:30;4.88;;;2.53;;
14933;SDS011;7560;51.364;12.384;2024-01-16T11:36:51;5.53;;;2.78;;
14933;SDS011;7560;51.364;12.384;2024-01-16T11:41:57;4.32;;;2.80;;
14933;SDS011;7560;51.364;12.384;2024-01-16T11:47:01;8.25;;;2.80;;
14933;SDS011;7560;51.364;12.384;2024-01-16T11:52:06;6.40;;;3.45;;
14933;SDS011;7560;51.364;12.384;2024-01-16T12:02:12;7.57;;;2.85;;
14933;SDS011;7560;51.364;12.384;2024-01-16T12:07:21;7.13;;;3.38;;
14933;SDS011;7560;51.364;12.384;2024-01-16T12:12:24;7.38;;;3.83;;
14933;SDS011;7560;51.364;12.384;2024-01-16T12:17:26;8.07;;;3.72;;
14933;SDS011;7560;51.364;12.384;2024-01-16T12:22:28;7.63;;;4.18;;
14933;SDS011;7560;51.364;12.384;2024-01-16T12:27:30;10.10;;;4.50;;
14933;SDS011;7560;51.364;12.384;2024-01-16T12:32:31;7.80;;;4.25;;
14933;SDS011;7560;51.364;12.384;2024-01-16T12:37:33;9.55;;;4.25;;
14933;SDS011;7560;51.364;12.384;2024-01-16T12:42:35;7.93;;;4.30;;
14933;SDS011;7560;51.364;12.384;2024-01-16T12:47:37;7.70;;;4.43;;
14933;SDS011;7560;51.364;12.384;2024-01-16T12:52:39;8.80;;;4.88;;
14933;SDS011;7560;51.364;12.384;2024-01-16T12:57:43;7.45;;;4.97;;
14933;SDS011;7560;51.364;12.384;2024-01-16T13:02:49;8.02;;;4.35;;
14933;SDS011;7560;51.364;12.384;2024-01-16T13:08:01;9.75;;;4.40;;
14933;SDS011;7560;51.364;12.384;2024-01-16T13:23:24;9.82;;;5.20;;
14933;SDS011;7560;51.364;12.384;2024-01-16T13:28:27;9.35;;;5.20;;
14933;SDS011;7560;51.364;12.384;2024-01-16T13:33:29;9.32;;;5.55;;
14933;SDS011;7560;51.364;12.384;2024-01-16T13:38:33;9.38;;;4.68;;
14933;SDS011;7560;51.364;12.384;2024-01-16T13:43:35;9.68;;;4.93;;
14933;SDS011;7560;51.364;12.384;2024-01-16T13:48:38;8.70;;;4.53;;
14933;SDS011;7560;51.364;12.384;2024-01-16T13:53:42;8.70;;;4.55;;
14933;SDS011;7560;51.364;12.384;2024-01-16T13:58:44;7.90;;;4.68;;
14933;SDS011;7560;51.364;12.384;2024-01-16T14:03:46;10.35;;;4.72;;
14933;SDS011;7560;51.364;12.384;2024-01-16T14:08:49;7.72;;;4.57;;
14933;SDS011;7560;51.364;12.384;2024-01-16T14:13:50;10.55;;;4.90;;
14933;SDS011;7560;51.364;12.384;2024-01-16T14:18:54;7.50;;;4.13;;
14933;SDS011;7560;51.364;12.384;2024-01-16T14:23:56;7.45;;;4.03;;
14933;SDS011;7560;51.364;12.384;2024-01-16T14:28:58;7.20;;;4.25;;
14933;SDS011;7560;51.364;12.384;2024-01-16T14:33:59;7.00;;;4.03;;
14933;SDS011;7560;51.364;12.384;2024-01-16T14:39:01;9.50;;;4.40;;
14933;SDS011;7560;51.364;12.384;2024-01-16T14:44:03;6.25;;;3.95;;
14933;SDS011;7560;51.364;12.384;2024-01-16T14:49:07;7.22;;;4.30;;
14933;SDS011;7560;51.364;12.384;2024-01-16T14:54:09;7.72;;;4.03;;
14933;SDS011;7560;51.364;12.384;2024-01-16T14:59:11;4.95;;;3.80;;
14933;SDS011;7560;51.364;12.384;2024-01-16T15:04:19;8.80;;;3.80;;
14933;SDS011;7560;51.364;12.384;2024-01-16T15:09:22;7.13;;;4.30;;
14933;SDS011;7560;51.364;12.384;2024-01-16T15:14:23;8.30;;;4.53;;
14933;SDS011;7560;51.364;12.384;2024-01-16T15:19:26;8.00;;;4.30;;
14933;SDS011;7560;51.364;12.384;2024-01-16T15:24:28;7.50;;;4.57;;
14933;SDS011;7560;51.364;12.384;2024-01-16T15:29:30;9.82;;;4.45;;
14933;SDS011;7560;51.364;12.384;2024-01-16T15:34:32;8.80;;;4.85;;
14933;SDS011;7560;51.364;12.384;2024-01-16T15:39:34;9.82;;;4.55;;
14933;SDS011;7560;51.364;12.384;2024-01-16T15:44:35;8.93;;;4.57;;
14933;SDS011;7560;51.364;12.384;2024-01-16T15:49:37;11.10;;;5.20;;
14933;SDS011;7560;51.364;12.384;2024-01-16T15:54:39;10.15;;;5.28;;
14933;SDS011;7560;51.364;12.384;2024-01-16T15:59:41;7.88;;;4.97;;
14933;SDS011;7560;51.364;12.384;2024-01-16T16:04:43;8.40;;;4.85;;
14933;SDS011;7560;51.364;12.384;2024-01-16T16:09:46;10.27;;;4.65;;
14933;SDS011;7560;51.364;12.384;2024-01-16T16:14:49;7.40;;;4.53;;
14933;SDS011;7560;51.364;12.384;2024-01-16T16:19:51;8.07;;;4.22;;
14933;SDS011;7560;51.364;12.384;2024-01-16T16:24:53;8.43;;;4.40;;
14933;SDS011;7560;51.364;12.384;2024-01-16T16:29:55;8.50;;;4.70;;
14933;SDS011;7560;51.364;12.384;2024-01-16T16:34:59;6.55;;;3.88;;
14933;SDS011;7560;51.364;12.384;2024-01-16T16:40:01;8.50;;;4.70;;
14933;SDS011;7560;51.364;12.384;2024-01-16T16:45:06;8.07;;;4.35;;
14933;SDS011;7560;51.364;12.384;2024-01-16T16:50:08;6.90;;;4.47;;
14933;SDS011;7560;51.364;12.384;2024-01-16T16:55:11;7.63;;;4.57;;
14933;SDS011;7560;51.364;12.384;2024-01-16T17:00:14;6.60;;;4.80;;
14933;SDS011;7560;51.364;12.384;2024-01-16T17:05:16;7.75;;;4.10;;
14933;SDS011;7560;51.364;12.384;2024-01-16T17:10:20;7.55;;;4.40;;
14933;SDS011;7560;51.364;12.384;2024-01-16T17:15:23;8.38;;;5.40;;
14933;SDS011;7560;51.364;12.384;2024-01-16T17:20:26;8.15;;;5.30;;
14933;SDS011;7560;51.364;12.384;2024-01-16T17:25:28;7.55;;;5.15;;
14933;SDS011;7560;51.364;12.384;2024-01-16T17:30:31;8.35;;;5.45;;
14933;SDS011;7560;51.364;12.384;2024-01-16T17:35:33;10.07;;;5.57;;
14933;SDS011;7560;51.364;12.384;2024-01-16T17:40:36;9.60;;;5.50;;
14933;SDS011;7560;51.364;12.384;2024-01-16T17:45:39;11.60;;;5.65;;
14933;SDS011;7560;51.364;12.384;2024-01-16T17:50:43;11.60;;;5.63;;
14933;SDS011;7560;51.364;12.384;2024-01-16T17:55:47;9.30;;;5.30;;
14933;SDS011;7560;51.364;12.384;2024-01-16T18:00:49;8.95;;;5.47;;
14933;SDS011;7560;51.364;12.384;2024-01-16T18:05:51;10.65;;;5.82;;
14933;SDS011;7560;51.364;12.384;2024-01-16T18:10:53;12.48;;;6.28;;
14933;SDS011;7560;51.364;12.384;2024-01-16T18:15:57;13.70;;;6.60;;
14933;SDS011;7560;51.364;12.384;2024-01-16T18:20:59;12.05;;;6.28;;
14933;SDS011;7560;51.364;12.384;2024-01-16T18:26:02;12.82;;;6.60;;
14933;SDS011;7560;51.364;12.384;2024-01-16T18:31:07;11.30;;;6.10;;
14933;SDS011;7560;51.364;12.384;2024-01-16T18:36:10;14.38;;;6.15;;
14933;SDS011;7560;51.364;12.384;2024-01-16T18:41:16;16.08;;;8.65;;
14933;SDS011;7560;51.364;12.384;2024-01-16T18:46:19;10.63;;;6.03;;
14933;SDS011;7560;51.364;12.384;2024-01-16T18:51:22;10.02;;;6.05;;
14933;SDS011;7560;51.364;12.384;2024-01-16T18:56:24;12.43;;;6.50;;
14933;SDS011;7560;51.364;12.384;2024-01-16T19:01:27;10.18;;;6.30;;
14933;SDS011;7560;51.364;12.384;2024-01-16T19:06:30;9.93;;;5.65;;
14933;SDS011;7560;51.364;12.384;2024-01-16T19:11:50;11.82;;;5.78;;
14933;SDS011;7560;51.364;12.384;2024-01-16T19:16:55;11.80;;;5.15;;
14933;SDS011;7560;51.364;12.384;2024-01-16T19:21:57;10.15;;;5.72;;
14933;SDS011;7560;51.364;12.384;2024-01-16T19:26:59;9.18;;;6.00;;
14933;SDS011;7560;51.364;12.384;2024-01-16T19:32:01;10.95;;;5.53;;
14933;SDS011;7560;51.364;12.384;2024-01-16T19:37:08;10.15;;;5.57;;
14933;SDS011;7560;51.364;12.384;2024-01-16T19:42:10;11.73;;;5.68;;
14933;SDS011;7560;51.364;12.384;2024-01-16T19:47:12;9.18;;;5.53;;
14933;SDS011;7560;51.364;12.384;2024-01-16T19:52:14;15.55;;;5.88;;
14933;SDS011;7560;51.364;12.384;2024-01-16T19:57:17;9.10;;;5.00;;
14933;SDS011;7560;51.364;12.384;2024-01-16T20:02:19;9.95;;;6.00;;
14933;SDS011;7560;51.364;12.384;2024-01-16T20:07:23;10.02;;;5.80;;
14933;SDS011;7560;51.364;12.384;2024-01-16T20:12:25;12.60;;;6.65;;
14933;SDS011;7560;51.364;12.384;2024-01-16T20:17:41;10.88;;;5.63;;
14933;SDS011;7560;51.364;12.384;2024-01-16T20:22:44;11.60;;;5.97;;
14933;SDS011;7560;51.364;12.384;2024-01-16T20:27:46;10.00;;;5.57;;
14933;SDS011;7560;51.364;12.384;2024-01-16T20:32:49;10.05;;;5.95;;
14933;SDS011;7560;51.364;12.384;2024-01-16T20:37:56;8.55;;;5.38;;
14933;SDS011;7560;51.364;12.384;2024-01-16T20:42:58;11.30;;;5.93;;
14933;SDS011;7560;51.364;12.384;2024-01-16T20:47:59;9.73;;;5.88;;
14933;SDS011;7560;51.364;12.384;2024-01-16T20:53:01;11.93;;;5.68;;
14933;SDS011;7560;51.364;12.384;2024-01-16T20:58:03;12.18;;;5.93;;
14933;SDS011;7560;51.364;12.384;2024-01-16T21:03:05;11.63;;;5.90;;
14933;SDS011;7560;51.364;12.384;2024-01-16T21:08:09;15.13;;;5.80;;
14933;SDS011;7560;51.364;12.384;2024-01-16T21:13:13;11.23;;;6.00;;
14933;SDS011;7560;51.364;12.384;2024-01-16T21:18:18;12.00;;;5.78;;
14933;SDS011;7560;51.364;12.384;2024-01-16T21:23:23;15.20;;;6.63;;
14933;SDS011;7560;51.364;12.384;2024-01-16T21:28:25;12.10;;;6.35;;
14933;SDS011;7560;51.364;12.384;2024-01-16T21:33:27;14.10;;;7.10;;
14933;SDS011;7560;51.364;12.384;2024-01-16T21:38:29;16.15;;;6.65;;
14933;SDS011;7560;51.364;12.384;2024-01-16T21:43:33;11.38;;;6.72;;
14933;SDS011;7560;51.364;12.384;2024-01-16T21:48:35;10.90;;;6.78;;
14933;SDS011;7560;51.364;12.384;2024-01-16T21:53:37;12.57;;;6.35;;
14933;SDS011;7560;51.364;12.384;2024-01-16T21:58:39;13.32;;;6.82;;
14933;SDS011;7560;51.364;12.384;2024-01-16T22:03:41;11.18;;;6.50;;
14933;SDS011;7560;51.364;12.384;2024-01-16T22:08:49;13.63;;;6.53;;
14933;SDS011;7560;51.364;12.384;2024-01-16T22:13:51;11.93;;;5.82;;
14933;SDS011;7560;51.364;12.384;2024-01-16T22:18:53;11.57;;;6.47;;
14933;SDS011;7560;51.364;12.384;2024-01-16T22:23:57;12.38;;;5.75;;
14933;SDS011;7560;51.364;12.384;2024-01-16T22:28:59;10.73;;;6.40;;
14933;SDS011;7560;51.364;12.384;2024-01-16T22:34:01;11.30;;;6.63;;
14933;SDS011;7560;51.364;12.384;2024-01-16T22:39:03;11.60;;;6.60;;
14933;SDS011;7560;51.364;12.384;2024-01-16T22:44:05;9.60;;;5.90;;
14933;SDS011;7560;51.364;12.384;2024-01-16T22:49:08;17.17;;;6.88;;
14933;SDS011;7560;51.364;12.384;2024-01-16T22:54:11;11.98;;;6.22;;
14933;SDS011;7560;51.364;12.384;2024-01-16T22:59:13;13.43;;;6.28;;
14933;SDS011;7560;51.364;12.384;2024-01-16T23:04:15;14.93;;;6.93;;
14933;SDS011;7560;51.364;12.384;2024-01-16T23:09:18;11.68;;;6.10;;
14933;SDS011;7560;51.364;12.384;2024-01-16T23:14:20;11.85;;;6.07;;
14933;SDS011;7560;51.364;12.384;2024-01-16T23:19:22;14.02;;;6.00;;
14933;SDS011;7560;51.364;12.384;2024-01-16T23:24:24;10.32;;;5.68;;
14933;SDS011;7560;51.364;12.384;2024-01-16T23:29:26;11.95;;;5.97;;
14933;SDS011;7560;51.364;12.384;2024-01-16T23:34:28;13.15;;;6.32;;
14933;SDS011;7560;51.364;12.384;2024-01-16T23:39:30;11.90;;;6.47;;
14933;SDS011;7560;51.364;12.384;2024-01-16T23:44:31;10.57;;;5.90;;
14933;SDS011;7560;51.364;12.384;2024-01-16T23:49:34;12.30;;;6.63;;
14933;SDS011;7560;51.364;12.384;2024-01-16T23:54:39;11.63;;;6.20;;
14933;SDS011;7560;51.364;12.384;2024-01-16T23:59:41;14.27;;;6.25;;
